KRBD/RBD METAR and TAF weather

Enter ICAO airport designator
Station Type Date Time Source
KRBD METAR 2020/01/19 22:53 UTC NOAA

KRBD 192253Z 34006KT 10SM CLR 12/M07 A3048 RMK AO2 SLP322 T01171067


Station Type Date Time Source
KRBD Decoded METAR 2020/01/19 22:53 UTC NOAA

DALLAS EXECUTIVE AIRPORT, TX, United States (KRBD) 32-41N 096-52W 203M
Jan 19, 2020 - 05:53 PM EST / 2020.01.19 2253 UTC
Wind: from the NNW (340 degrees) at 7 MPH (6 KT):0
Visibility: 10 mile(s):0
Sky conditions: clear
Temperature: 53.1 F (11.7 C)
Dew Point: 19.9 F (-6.7 C)
Relative Humidity: 26%
Pressure (altimeter): 30.48 in. Hg (1032 hPa)
ob: KRBD 192253Z 34006KT 10SM CLR 12/M07 A3048 RMK AO2 SLP322 T01171067
cycle: 23

Station Type Date Time Source
KRBD TAF UTC NOAA

Error!

Example: see airport list